Terminal Aerodrome Forecast
Issued by NWS

Home | Current Version | Previous Version | Text Only | Print | Product List | Glossary On
Versions: 1 2 3 4 5 6 7 8 9 10 11 12 13 14 15 16 17 18 19
000
FTUS44 KCRP 221100
TAFALI
TAF
KALI 221121Z 2212/2312 03006KT P6SM SCT250
     FM221500 08010KT P6SM SCT030 BKN150
      TEMPO 2216/2218 BKN030
     FM222100 09012G18KT P6SM SCT040
     FM230200 09008KT P6SM SCT025
     FM231000 09004KT 5SM BR SCT015=

USA.gov is the U.S. government's official web portal to all federal, state and local government web resources and services.